sensor_id;sensor_type;location;lat;lon;timestamp;pressure;altitude;pressure_sealevel;temperature;humidity
76124;BME280;65173;48.066;20.976;2023-02-26T00:00:24;99162.25;;;1.59;76.62
76124;BME280;65173;48.066;20.976;2023-02-26T00:03:28;99162.75;;;1.61;76.63
76124;BME280;65173;48.066;20.976;2023-02-26T00:06:33;99142.03;;;1.59;76.28
76124;BME280;65173;48.066;20.976;2023-02-26T00:09:36;99140.31;;;1.68;76.23
76124;BME280;65173;48.066;20.976;2023-02-26T00:12:40;99153.22;;;1.65;76.06
76124;BME280;65173;48.066;20.976;2023-02-26T00:15:43;99156.53;;;1.76;75.76
76124;BME280;65173;48.066;20.976;2023-02-26T00:18:47;99171.88;;;1.63;76.14
76124;BME280;65173;48.066;20.976;2023-02-26T00:21:50;99203.06;;;1.70;75.92
76124;BME280;65173;48.066;20.976;2023-02-26T00:24:53;99200.16;;;1.71;76.09
76124;BME280;65173;48.066;20.976;2023-02-26T00:27:55;99206.94;;;1.54;76.96
76124;BME280;65173;48.066;20.976;2023-02-26T00:30:59;99194.75;;;1.39;77.50
76124;BME280;65173;48.066;20.976;2023-02-26T00:34:02;99195.97;;;1.47;77.35
76124;BME280;65173;48.066;20.976;2023-02-26T00:37:15;99199.59;;;1.51;77.07
76124;BME280;65173;48.066;20.976;2023-02-26T00:43:40;99187.00;;;1.53;76.62
76124;BME280;65173;48.066;20.976;2023-02-26T00:50:05;99185.03;;;1.39;77.65
76124;BME280;65173;48.066;20.976;2023-02-26T00:53:21;99187.19;;;1.32;78.07
76124;BME280;65173;48.066;20.976;2023-02-26T00:56:26;99188.72;;;1.38;77.76
76124;BME280;65173;48.066;20.976;2023-02-26T00:59:28;99206.81;;;1.40;77.62
76124;BME280;65173;48.066;20.976;2023-02-26T01:02:35;99209.31;;;1.50;77.43
76124;BME280;65173;48.066;20.976;2023-02-26T01:05:38;99213.81;;;1.50;77.57
76124;BME280;65173;48.066;20.976;2023-02-26T01:09:17;99207.88;;;1.63;77.72
76124;BME280;65173;48.066;20.976;2023-02-26T01:12:11;99224.88;;;1.70;76.92
76124;BME280;65173;48.066;20.976;2023-02-26T01:15:16;99228.78;;;1.73;76.58
76124;BME280;65173;48.066;20.976;2023-02-26T01:18:25;99221.94;;;1.48;77.59
76124;BME280;65173;48.066;20.976;2023-02-26T01:21:32;99190.22;;;1.45;78.29
76124;BME280;65173;48.066;20.976;2023-02-26T01:24:36;99179.44;;;1.46;77.93
76124;BME280;65173;48.066;20.976;2023-02-26T01:27:40;99188.84;;;1.52;78.11
76124;BME280;65173;48.066;20.976;2023-02-26T01:30:43;99211.06;;;1.60;78.07
76124;BME280;65173;48.066;20.976;2023-02-26T01:33:52;99200.41;;;1.75;78.02
76124;BME280;65173;48.066;20.976;2023-02-26T01:37:03;99195.31;;;1.60;78.44
76124;BME280;65173;48.066;20.976;2023-02-26T01:43:24;99202.75;;;1.53;78.04
76124;BME280;65173;48.066;20.976;2023-02-26T01:49:54;99188.78;;;1.57;78.57
76124;BME280;65173;48.066;20.976;2023-02-26T01:53:23;99207.03;;;1.44;78.63
76124;BME280;65173;48.066;20.976;2023-02-26T01:56:26;99216.47;;;1.45;78.73
76124;BME280;65173;48.066;20.976;2023-02-26T01:59:33;99223.34;;;1.41;78.88
76124;BME280;65173;48.066;20.976;2023-02-26T02:02:37;99228.47;;;1.27;79.56
76124;BME280;65173;48.066;20.976;2023-02-26T02:05:46;99245.22;;;1.31;79.92
76124;BME280;65173;48.066;20.976;2023-02-26T02:08:51;99248.47;;;1.47;79.98
76124;BME280;65173;48.066;20.976;2023-02-26T02:12:12;99252.28;;;1.35;79.13
76124;BME280;65173;48.066;20.976;2023-02-26T02:15:29;99245.03;;;1.51;79.32
76124;BME280;65173;48.066;20.976;2023-02-26T02:18:51;99239.38;;;1.63;78.28
76124;BME280;65173;48.066;20.976;2023-02-26T02:25:12;99237.31;;;1.36;79.54
76124;BME280;65173;48.066;20.976;2023-02-26T02:31:45;99232.88;;;1.31;79.78
76124;BME280;65173;48.066;20.976;2023-02-26T02:35:13;99244.28;;;1.46;79.31
76124;BME280;65173;48.066;20.976;2023-02-26T02:38:24;99245.25;;;1.26;80.06
76124;BME280;65173;48.066;20.976;2023-02-26T02:41:33;99250.19;;;1.32;80.17
76124;BME280;65173;48.066;20.976;2023-02-26T02:44:40;99255.72;;;1.31;79.98
76124;BME280;65173;48.066;20.976;2023-02-26T02:47:48;99261.59;;;1.47;78.98
76124;BME280;65173;48.066;20.976;2023-02-26T02:50:59;99268.16;;;1.49;79.99
76124;BME280;65173;48.066;20.976;2023-02-26T02:54:11;99268.94;;;1.50;79.30
76124;BME280;65173;48.066;20.976;2023-02-26T02:57:29;99288.06;;;1.55;79.24
76124;BME280;65173;48.066;20.976;2023-02-26T03:00:39;99281.00;;;1.51;78.69
76124;BME280;65173;48.066;20.976;2023-02-26T03:04:04;99269.34;;;1.33;79.73
76124;BME280;65173;48.066;20.976;2023-02-26T03:07:09;99274.66;;;1.28;80.04
76124;BME280;65173;48.066;20.976;2023-02-26T03:10:12;99265.78;;;1.24;80.29
76124;BME280;65173;48.066;20.976;2023-02-26T03:13:23;99265.19;;;1.27;80.08
76124;BME280;65173;48.066;20.976;2023-02-26T03:16:58;99264.06;;;1.38;79.94
76124;BME280;65173;48.066;20.976;2023-02-26T03:20:31;99270.47;;;1.56;80.03
76124;BME280;65173;48.066;20.976;2023-02-26T03:23:45;99274.25;;;1.68;79.64
76124;BME280;65173;48.066;20.976;2023-02-26T03:33:22;99300.38;;;1.60;79.80
76124;BME280;65173;48.066;20.976;2023-02-26T03:39:53;99290.13;;;1.58;79.04
76124;BME280;65173;48.066;20.976;2023-02-26T03:43:09;99300.56;;;1.63;78.97
76124;BME280;65173;48.066;20.976;2023-02-26T03:46:23;99305.03;;;1.63;80.14
76124;BME280;65173;48.066;20.976;2023-02-26T03:49:35;99306.59;;;1.64;80.08
76124;BME280;65173;48.066;20.976;2023-02-26T03:52:42;99311.31;;;1.67;79.13
76124;BME280;65173;48.066;20.976;2023-02-26T03:56:06;99312.03;;;1.44;79.97
76124;BME280;65173;48.066;20.976;2023-02-26T03:59:38;99315.50;;;1.39;80.42
76124;BME280;65173;48.066;20.976;2023-02-26T04:03:23;99328.47;;;1.59;80.39
76124;BME280;65173;48.066;20.976;2023-02-26T04:06:29;99326.69;;;1.50;80.46
76124;BME280;65173;48.066;20.976;2023-02-26T04:09:33;99325.22;;;1.67;79.71
76124;BME280;65173;48.066;20.976;2023-02-26T04:12:36;99332.53;;;1.76;79.13
76124;BME280;65173;48.066;20.976;2023-02-26T04:15:41;99328.91;;;1.66;79.18
76124;BME280;65173;48.066;20.976;2023-02-26T04:18:45;99335.47;;;1.69;79.52
76124;BME280;65173;48.066;20.976;2023-02-26T04:21:48;99343.16;;;1.60;79.79
76124;BME280;65173;48.066;20.976;2023-02-26T04:24:51;99338.19;;;1.59;79.78
76124;BME280;65173;48.066;20.976;2023-02-26T04:27:54;99340.03;;;1.58;79.91
76124;BME280;65173;48.066;20.976;2023-02-26T04:30:57;99352.97;;;1.50;79.94
76124;BME280;65173;48.066;20.976;2023-02-26T04:34:01;99356.63;;;1.49;80.62
76124;BME280;65173;48.066;20.976;2023-02-26T04:37:04;99349.78;;;1.53;80.16
76124;BME280;65173;48.066;20.976;2023-02-26T04:40:08;99360.19;;;1.34;80.63
76124;BME280;65173;48.066;20.976;2023-02-26T04:43:11;99369.97;;;1.23;81.37
76124;BME280;65173;48.066;20.976;2023-02-26T04:46:23;99378.38;;;1.20;81.25
76124;BME280;65173;48.066;20.976;2023-02-26T04:49:27;99383.19;;;1.08;82.07
76124;BME280;65173;48.066;20.976;2023-02-26T04:52:30;99391.13;;;0.98;82.86
76124;BME280;65173;48.066;20.976;2023-02-26T04:55:35;99372.19;;;1.06;83.05
76124;BME280;65173;48.066;20.976;2023-02-26T04:58:40;99371.91;;;1.08;82.97
76124;BME280;65173;48.066;20.976;2023-02-26T05:01:49;99371.03;;;1.22;82.43
76124;BME280;65173;48.066;20.976;2023-02-26T05:04:51;99354.50;;;1.22;82.20
76124;BME280;65173;48.066;20.976;2023-02-26T05:07:54;99341.38;;;1.22;82.73
76124;BME280;65173;48.066;20.976;2023-02-26T05:10:58;99348.72;;;1.25;82.18
76124;BME280;65173;48.066;20.976;2023-02-26T05:14:02;99358.38;;;1.29;82.10
76124;BME280;65173;48.066;20.976;2023-02-26T05:17:05;99372.75;;;1.37;81.97
76124;BME280;65173;48.066;20.976;2023-02-26T05:20:09;99387.44;;;1.38;82.21
76124;BME280;65173;48.066;20.976;2023-02-26T05:23:12;99404.28;;;1.32;82.28
76124;BME280;65173;48.066;20.976;2023-02-26T05:26:15;99411.09;;;1.33;82.18
76124;BME280;65173;48.066;20.976;2023-02-26T05:29:18;99414.50;;;1.38;82.06
76124;BME280;65173;48.066;20.976;2023-02-26T05:32:21;99441.56;;;1.29;82.45
76124;BME280;65173;48.066;20.976;2023-02-26T05:35:24;99445.03;;;1.24;82.49
76124;BME280;65173;48.066;20.976;2023-02-26T05:38:27;99438.72;;;1.25;82.90
76124;BME280;65173;48.066;20.976;2023-02-26T05:41:30;99445.25;;;1.28;82.86
76124;BME280;65173;48.066;20.976;2023-02-26T05:44:33;99457.06;;;1.30;82.80
76124;BME280;65173;48.066;20.976;2023-02-26T05:47:37;99458.63;;;1.31;82.84
76124;BME280;65173;48.066;20.976;2023-02-26T05:50:40;99465.94;;;1.39;81.92
76124;BME280;65173;48.066;20.976;2023-02-26T05:53:44;99469.38;;;1.35;82.06
76124;BME280;65173;48.066;20.976;2023-02-26T05:56:46;99492.53;;;1.23;83.13
76124;BME280;65173;48.066;20.976;2023-02-26T05:59:50;99472.81;;;1.30;82.75
76124;BME280;65173;48.066;20.976;2023-02-26T06:02:53;99496.59;;;0.90;84.77
76124;BME280;65173;48.066;20.976;2023-02-26T06:05:55;99498.72;;;0.88;85.68
76124;BME280;65173;48.066;20.976;2023-02-26T06:08:59;99498.97;;;0.91;86.06
76124;BME280;65173;48.066;20.976;2023-02-26T06:12:04;99495.53;;;0.96;85.66
76124;BME280;65173;48.066;20.976;2023-02-26T06:15:08;99505.41;;;1.24;85.31
76124;BME280;65173;48.066;20.976;2023-02-26T06:18:11;99511.16;;;1.26;84.98
76124;BME280;65173;48.066;20.976;2023-02-26T06:21:16;99520.03;;;1.35;85.03
76124;BME280;65173;48.066;20.976;2023-02-26T06:24:20;99524.22;;;1.42;84.74
76124;BME280;65173;48.066;20.976;2023-02-26T06:27:23;99539.22;;;1.31;85.06
76124;BME280;65173;48.066;20.976;2023-02-26T06:30:25;99542.69;;;1.16;85.84
76124;BME280;65173;48.066;20.976;2023-02-26T06:33:29;99548.69;;;1.27;85.66
76124;BME280;65173;48.066;20.976;2023-02-26T06:36:32;99552.00;;;1.48;85.55
76124;BME280;65173;48.066;20.976;2023-02-26T06:39:35;99552.84;;;1.38;85.86
76124;BME280;65173;48.066;20.976;2023-02-26T06:42:38;99553.09;;;1.42;86.16
76124;BME280;65173;48.066;20.976;2023-02-26T06:45:41;99569.81;;;1.61;85.72
76124;BME280;65173;48.066;20.976;2023-02-26T06:48:44;99591.09;;;1.59;85.51
76124;BME280;65173;48.066;20.976;2023-02-26T06:51:47;99595.28;;;1.60;85.34
76124;BME280;65173;48.066;20.976;2023-02-26T06:54:50;99604.50;;;1.53;86.09
76124;BME280;65173;48.066;20.976;2023-02-26T06:57:53;99601.06;;;1.57;85.33
76124;BME280;65173;48.066;20.976;2023-02-26T07:00:57;99608.94;;;1.57;85.63
76124;BME280;65173;48.066;20.976;2023-02-26T07:03:59;99626.72;;;1.76;85.82
76124;BME280;65173;48.066;20.976;2023-02-26T07:07:02;99624.31;;;1.84;85.52
76124;BME280;65173;48.066;20.976;2023-02-26T07:10:06;99627.94;;;1.93;84.83
76124;BME280;65173;48.066;20.976;2023-02-26T07:13:10;99615.31;;;1.95;84.58
76124;BME280;65173;48.066;20.976;2023-02-26T07:16:12;99619.00;;;1.94;84.88
76124;BME280;65173;48.066;20.976;2023-02-26T07:19:15;99629.00;;;1.92;85.94
76124;BME280;65173;48.066;20.976;2023-02-26T07:22:19;99634.94;;;2.13;85.10
76124;BME280;65173;48.066;20.976;2023-02-26T07:25:23;99647.00;;;2.14;85.69
76124;BME280;65173;48.066;20.976;2023-02-26T07:28:27;99651.53;;;2.03;85.55
76124;BME280;65173;48.066;20.976;2023-02-26T07:31:30;99651.72;;;2.17;85.89
76124;BME280;65173;48.066;20.976;2023-02-26T07:34:33;99638.53;;;2.22;85.59
76124;BME280;65173;48.066;20.976;2023-02-26T07:37:36;99643.25;;;2.25;86.48
76124;BME280;65173;48.066;20.976;2023-02-26T07:40:39;99648.63;;;2.10;87.04
76124;BME280;65173;48.066;20.976;2023-02-26T07:43:43;99645.06;;;2.30;86.64
76124;BME280;65173;48.066;20.976;2023-02-26T07:46:45;99655.13;;;2.18;87.23
76124;BME280;65173;48.066;20.976;2023-02-26T07:49:49;99662.63;;;2.34;87.34
76124;BME280;65173;48.066;20.976;2023-02-26T07:52:52;99661.00;;;2.43;87.56
76124;BME280;65173;48.066;20.976;2023-02-26T07:55:55;99657.59;;;2.43;87.27
76124;BME280;65173;48.066;20.976;2023-02-26T07:58:58;99656.72;;;2.53;87.75
76124;BME280;65173;48.066;20.976;2023-02-26T08:02:01;99655.63;;;2.59;87.23
76124;BME280;65173;48.066;20.976;2023-02-26T08:05:03;99657.72;;;2.62;88.27
76124;BME280;65173;48.066;20.976;2023-02-26T08:08:07;99673.13;;;2.73;88.38
76124;BME280;65173;48.066;20.976;2023-02-26T08:11:09;99662.75;;;2.58;88.84
76124;BME280;65173;48.066;20.976;2023-02-26T08:14:12;99666.84;;;2.69;89.64
76124;BME280;65173;48.066;20.976;2023-02-26T08:17:15;99657.56;;;2.82;88.98
76124;BME280;65173;48.066;20.976;2023-02-26T08:20:18;99661.84;;;3.02;87.26
76124;BME280;65173;48.066;20.976;2023-02-26T08:23:21;99662.41;;;2.99;87.08
76124;BME280;65173;48.066;20.976;2023-02-26T08:26:25;99672.59;;;3.05;87.36
76124;BME280;65173;48.066;20.976;2023-02-26T08:29:28;99673.97;;;3.27;87.48
76124;BME280;65173;48.066;20.976;2023-02-26T08:32:32;99672.03;;;3.37;87.48
76124;BME280;65173;48.066;20.976;2023-02-26T08:35:40;99680.50;;;3.58;86.58
76124;BME280;65173;48.066;20.976;2023-02-26T08:38:43;99691.41;;;3.70;85.61
76124;BME280;65173;48.066;20.976;2023-02-26T08:41:47;99678.09;;;3.80;85.88
76124;BME280;65173;48.066;20.976;2023-02-26T08:44:50;99673.75;;;3.71;85.74
76124;BME280;65173;48.066;20.976;2023-02-26T08:47:53;99670.06;;;3.72;86.16
76124;BME280;65173;48.066;20.976;2023-02-26T08:50:58;99707.31;;;3.84;86.15
76124;BME280;65173;48.066;20.976;2023-02-26T08:54:02;99714.13;;;3.90;86.37
76124;BME280;65173;48.066;20.976;2023-02-26T08:57:05;99714.50;;;4.02;84.36
76124;BME280;65173;48.066;20.976;2023-02-26T09:00:08;99705.31;;;4.18;84.36
76124;BME280;65173;48.066;20.976;2023-02-26T09:03:14;99695.72;;;4.28;84.59
76124;BME280;65173;48.066;20.976;2023-02-26T09:06:17;99693.47;;;4.53;83.93
76124;BME280;65173;48.066;20.976;2023-02-26T09:09:20;99702.16;;;4.54;83.76
76124;BME280;65173;48.066;20.976;2023-02-26T09:12:24;99711.81;;;4.64;83.27
76124;BME280;65173;48.066;20.976;2023-02-26T09:15:27;99715.56;;;4.76;82.61
76124;BME280;65173;48.066;20.976;2023-02-26T09:18:32;99722.31;;;5.01;80.76
76124;BME280;65173;48.066;20.976;2023-02-26T09:21:35;99723.84;;;5.02;78.91
76124;BME280;65173;48.066;20.976;2023-02-26T09:24:38;99725.19;;;5.18;78.67
76124;BME280;65173;48.066;20.976;2023-02-26T09:27:41;99731.84;;;5.30;79.29
76124;BME280;65173;48.066;20.976;2023-02-26T09:30:45;99708.50;;;5.50;78.17
76124;BME280;65173;48.066;20.976;2023-02-26T09:33:47;99712.72;;;5.51;73.71
76124;BME280;65173;48.066;20.976;2023-02-26T09:36:50;99713.59;;;5.61;73.30
76124;BME280;65173;48.066;20.976;2023-02-26T09:39:53;99718.06;;;5.19;70.58
76124;BME280;65173;48.066;20.976;2023-02-26T09:43:12;99717.13;;;5.10;71.10
76124;BME280;65173;48.066;20.976;2023-02-26T09:53:01;99731.00;;;5.34;67.86
76124;BME280;65173;48.066;20.976;2023-02-26T09:56:13;99737.63;;;5.32;64.11
76124;BME280;65173;48.066;20.976;2023-02-26T09:59:17;99738.78;;;5.26;63.06
76124;BME280;65173;48.066;20.976;2023-02-26T10:12:17;99754.94;;;6.25;62.50
76124;BME280;65173;48.066;20.976;2023-02-26T10:15:27;99756.00;;;6.10;59.71
76124;BME280;65173;48.066;20.976;2023-02-26T10:18:33;99756.50;;;6.26;61.01
76124;BME280;65173;48.066;20.976;2023-02-26T10:21:42;99768.38;;;6.51;58.62
76124;BME280;65173;48.066;20.976;2023-02-26T10:24:57;99780.28;;;6.40;58.30
76124;BME280;65173;48.066;20.976;2023-02-26T10:28:30;99783.28;;;6.47;58.03
76124;BME280;65173;48.066;20.976;2023-02-26T10:31:48;99790.44;;;6.60;57.02
76124;BME280;65173;48.066;20.976;2023-02-26T10:35:08;99788.00;;;6.50;59.18
76124;BME280;65173;48.066;20.976;2023-02-26T10:38:17;99780.13;;;6.22;58.33
76124;BME280;65173;48.066;20.976;2023-02-26T10:41:24;99783.16;;;6.16;58.90
76124;BME280;65173;48.066;20.976;2023-02-26T10:44:50;99778.72;;;5.84;56.77
76124;BME280;65173;48.066;20.976;2023-02-26T10:51:32;99777.66;;;5.99;57.78
76124;BME280;65173;48.066;20.976;2023-02-26T10:54:43;99781.94;;;5.67;58.23
76124;BME280;65173;48.066;20.976;2023-02-26T10:58:15;99770.00;;;5.83;57.37
76124;BME280;65173;48.066;20.976;2023-02-26T11:01:19;99776.53;;;5.58;56.81
76124;BME280;65173;48.066;20.976;2023-02-26T11:04:24;99770.78;;;5.84;58.75
76124;BME280;65173;48.066;20.976;2023-02-26T11:07:30;99777.06;;;5.88;57.76
76124;BME280;65173;48.066;20.976;2023-02-26T11:10:46;99764.16;;;6.00;59.04
76124;BME280;65173;48.066;20.976;2023-02-26T11:13:51;99781.19;;;6.21;59.46
76124;BME280;65173;48.066;20.976;2023-02-26T11:16:56;99791.69;;;6.26;55.37
76124;BME280;65173;48.066;20.976;2023-02-26T11:20:11;99797.84;;;6.36;56.76
76124;BME280;65173;48.066;20.976;2023-02-26T11:23:20;99800.97;;;6.10;58.52
76124;BME280;65173;48.066;20.976;2023-02-26T11:26:26;99804.22;;;6.35;57.48
76124;BME280;65173;48.066;20.976;2023-02-26T11:29:37;99810.19;;;5.99;57.29
76124;BME280;65173;48.066;20.976;2023-02-26T11:32:41;99823.63;;;5.89;58.12
76124;BME280;65173;48.066;20.976;2023-02-26T11:35:47;99818.41;;;6.11;56.55
76124;BME280;65173;48.066;20.976;2023-02-26T11:42:04;99822.59;;;5.85;55.02
76124;BME280;65173;48.066;20.976;2023-02-26T11:45:13;99825.25;;;5.85;54.11
76124;BME280;65173;48.066;20.976;2023-02-26T11:48:24;99827.41;;;5.83;55.28
76124;BME280;65173;48.066;20.976;2023-02-26T11:51:28;99827.97;;;5.80;54.94
76124;BME280;65173;48.066;20.976;2023-02-26T11:54:34;99840.81;;;5.73;53.92
76124;BME280;65173;48.066;20.976;2023-02-26T11:57:41;99840.50;;;5.74;53.33
76124;BME280;65173;48.066;20.976;2023-02-26T12:00:45;99849.69;;;6.09;53.44
76124;BME280;65173;48.066;20.976;2023-02-26T12:03:48;99835.94;;;6.48;51.65
76124;BME280;65173;48.066;20.976;2023-02-26T12:06:54;99852.56;;;6.26;51.09
76124;BME280;65173;48.066;20.976;2023-02-26T12:09:57;99844.19;;;6.33;51.37
76124;BME280;65173;48.066;20.976;2023-02-26T12:26:32;99839.16;;;5.44;51.49
76124;BME280;65173;48.066;20.976;2023-02-26T12:43:26;99884.00;;;5.49;51.98
76124;BME280;65173;48.066;20.976;2023-02-26T12:46:57;99893.53;;;5.32;51.63
76124;BME280;65173;48.066;20.976;2023-02-26T12:56:58;99902.75;;;5.15;51.97
76124;BME280;65173;48.066;20.976;2023-02-26T13:00:24;99902.66;;;5.02;52.51
76124;BME280;65173;48.066;20.976;2023-02-26T13:10:14;99903.66;;;4.87;53.57
76124;BME280;65173;48.066;20.976;2023-02-26T13:13:40;99908.91;;;4.68;52.76
76124;BME280;65173;48.066;20.976;2023-02-26T13:17:05;99908.84;;;4.73;53.62
76124;BME280;65173;48.066;20.976;2023-02-26T13:20:16;99927.78;;;4.80;54.32
76124;BME280;65173;48.066;20.976;2023-02-26T13:23:22;99922.69;;;4.84;53.90
76124;BME280;65173;48.066;20.976;2023-02-26T13:26:27;99909.25;;;4.62;52.41
76124;BME280;65173;48.066;20.976;2023-02-26T13:29:52;99921.66;;;4.61;53.49
76124;BME280;65173;48.066;20.976;2023-02-26T13:32:59;99916.91;;;4.63;54.16
76124;BME280;65173;48.066;20.976;2023-02-26T13:36:05;99924.97;;;4.72;54.15
76124;BME280;65173;48.066;20.976;2023-02-26T13:39:41;99927.00;;;4.56;53.44
76124;BME280;65173;48.066;20.976;2023-02-26T13:46:24;99929.63;;;4.56;52.59
76124;BME280;65173;48.066;20.976;2023-02-26T13:56:54;99953.50;;;4.46;52.58
76124;BME280;65173;48.066;20.976;2023-02-26T14:00:07;99962.53;;;4.40;52.87
76124;BME280;65173;48.066;20.976;2023-02-26T14:10:00;99971.41;;;4.20;54.54
76124;BME280;65173;48.066;20.976;2023-02-26T14:13:17;99968.38;;;4.08;54.24
76124;BME280;65173;48.066;20.976;2023-02-26T14:16:22;99974.72;;;4.07;54.09
76124;BME280;65173;48.066;20.976;2023-02-26T14:19:31;99990.56;;;4.02;55.07
76124;BME280;65173;48.066;20.976;2023-02-26T14:22:36;99992.22;;;3.93;54.17
76124;BME280;65173;48.066;20.976;2023-02-26T14:25:48;99998.31;;;3.88;53.93
76124;BME280;65173;48.066;20.976;2023-02-26T14:32:03;100008.09;;;3.82;53.50
76124;BME280;65173;48.066;20.976;2023-02-26T14:35:14;100006.56;;;3.76;51.88
76124;BME280;65173;48.066;20.976;2023-02-26T14:38:27;99998.44;;;3.73;52.36
76124;BME280;65173;48.066;20.976;2023-02-26T14:41:38;100006.88;;;3.70;51.13
76124;BME280;65173;48.066;20.976;2023-02-26T14:44:46;100015.31;;;3.72;51.65
76124;BME280;65173;48.066;20.976;2023-02-26T14:47:50;100006.84;;;3.75;52.17
76124;BME280;65173;48.066;20.976;2023-02-26T14:54:33;100018.53;;;3.59;53.29
76124;BME280;65173;48.066;20.976;2023-02-26T15:01:13;100035.97;;;3.55;52.92
76124;BME280;65173;48.066;20.976;2023-02-26T15:08:19;100048.63;;;3.53;53.62
76124;BME280;65173;48.066;20.976;2023-02-26T15:11:37;100056.03;;;3.45;53.45
76124;BME280;65173;48.066;20.976;2023-02-26T15:24:39;100079.53;;;3.37;54.32
76124;BME280;65173;48.066;20.976;2023-02-26T15:27:43;100085.59;;;3.32;54.36
76124;BME280;65173;48.066;20.976;2023-02-26T15:30:47;100091.91;;;3.26;54.54
76124;BME280;65173;48.066;20.976;2023-02-26T15:33:54;100095.59;;;3.30;54.69
76124;BME280;65173;48.066;20.976;2023-02-26T15:36:58;100090.91;;;3.22;54.70
76124;BME280;65173;48.066;20.976;2023-02-26T15:40:06;100101.44;;;3.17;56.26
76124;BME280;65173;48.066;20.976;2023-02-26T15:43:16;100102.50;;;3.16;56.22
76124;BME280;65173;48.066;20.976;2023-02-26T15:46:30;100107.22;;;3.19;55.56
76124;BME280;65173;48.066;20.976;2023-02-26T15:49:39;100114.34;;;3.19;56.06
76124;BME280;65173;48.066;20.976;2023-02-26T15:52:43;100125.19;;;3.02;56.08
76124;BME280;65173;48.066;20.976;2023-02-26T15:55:50;100128.88;;;3.01;55.84
76124;BME280;65173;48.066;20.976;2023-02-26T15:58:58;100126.50;;;3.04;54.96
76124;BME280;65173;48.066;20.976;2023-02-26T16:02:10;100135.44;;;2.98;55.13
76124;BME280;65173;48.066;20.976;2023-02-26T16:05:15;100137.03;;;2.99;55.52
76124;BME280;65173;48.066;20.976;2023-02-26T16:08:20;100144.13;;;2.94;55.24
76124;BME280;65173;48.066;20.976;2023-02-26T16:11:26;100143.09;;;2.85;55.39
76124;BME280;65173;48.066;20.976;2023-02-26T16:14:35;100150.47;;;2.83;55.47
76124;BME280;65173;48.066;20.976;2023-02-26T16:17:41;100157.31;;;2.78;55.56
76124;BME280;65173;48.066;20.976;2023-02-26T16:20:47;100156.25;;;2.74;56.25
76124;BME280;65173;48.066;20.976;2023-02-26T16:23:53;100161.53;;;2.74;56.06
76124;BME280;65173;48.066;20.976;2023-02-26T16:27:03;100162.56;;;2.73;56.32
76124;BME280;65173;48.066;20.976;2023-02-26T16:30:17;100176.53;;;2.64;57.17
76124;BME280;65173;48.066;20.976;2023-02-26T16:33:24;100170.72;;;2.62;57.83
76124;BME280;65173;48.066;20.976;2023-02-26T16:36:35;100175.19;;;2.56;58.11
76124;BME280;65173;48.066;20.976;2023-02-26T16:39:43;100180.47;;;2.56;58.35
76124;BME280;65173;48.066;20.976;2023-02-26T16:45:55;100187.31;;;2.47;58.05
76124;BME280;65173;48.066;20.976;2023-02-26T16:49:28;100189.41;;;2.50;58.36
76124;BME280;65173;48.066;20.976;2023-02-26T16:52:33;100193.09;;;2.49;58.43
76124;BME280;65173;48.066;20.976;2023-02-26T16:55:48;100193.09;;;2.49;58.49
76124;BME280;65173;48.066;20.976;2023-02-26T16:59:14;100208.06;;;2.43;58.81
76124;BME280;65173;48.066;20.976;2023-02-26T17:02:25;100210.44;;;2.45;57.84
76124;BME280;65173;48.066;20.976;2023-02-26T17:05:31;100212.00;;;2.41;57.96
76124;BME280;65173;48.066;20.976;2023-02-26T17:08:57;100226.97;;;2.35;58.09
76124;BME280;65173;48.066;20.976;2023-02-26T17:12:15;100239.59;;;2.33;58.87
76124;BME280;65173;48.066;20.976;2023-02-26T17:15:26;100244.34;;;2.31;58.11
76124;BME280;65173;48.066;20.976;2023-02-26T17:18:30;100241.19;;;2.29;58.73
76124;BME280;65173;48.066;20.976;2023-02-26T17:21:39;100241.41;;;2.23;58.57
76124;BME280;65173;48.066;20.976;2023-02-26T17:24:44;100242.19;;;2.23;58.23
76124;BME280;65173;48.066;20.976;2023-02-26T17:27:47;100258.25;;;2.27;58.15
76124;BME280;65173;48.066;20.976;2023-02-26T17:30:52;100263.50;;;2.22;57.94
76124;BME280;65173;48.066;20.976;2023-02-26T17:33:56;100259.53;;;2.19;57.64
76124;BME280;65173;48.066;20.976;2023-02-26T17:36:59;100240.09;;;2.20;57.25
76124;BME280;65173;48.066;20.976;2023-02-26T17:40:24;100254.28;;;2.19;57.59
76124;BME280;65173;48.066;20.976;2023-02-26T17:43:28;100256.13;;;2.19;57.17
76124;BME280;65173;48.066;20.976;2023-02-26T17:46:31;100242.19;;;2.18;57.27
76124;BME280;65173;48.066;20.976;2023-02-26T17:49:34;100243.47;;;2.16;57.24
76124;BME280;65173;48.066;20.976;2023-02-26T17:52:37;100237.19;;;2.12;57.38
76124;BME280;65173;48.066;20.976;2023-02-26T17:55:40;100249.53;;;2.11;57.29
76124;BME280;65173;48.066;20.976;2023-02-26T17:58:44;100236.09;;;2.07;57.42
76124;BME280;65173;48.066;20.976;2023-02-26T18:01:47;100235.81;;;2.04;57.37
76124;BME280;65173;48.066;20.976;2023-02-26T18:04:51;100240.53;;;2.02;57.88
76124;BME280;65173;48.066;20.976;2023-02-26T18:07:54;100241.84;;;1.99;58.09
76124;BME280;65173;48.066;20.976;2023-02-26T18:10:58;100238.16;;;1.95;58.05
76124;BME280;65173;48.066;20.976;2023-02-26T18:14:03;100246.31;;;1.94;58.14
76124;BME280;65173;48.066;20.976;2023-02-26T18:17:12;100239.69;;;1.86;58.55
76124;BME280;65173;48.066;20.976;2023-02-26T18:20:18;100238.94;;;1.91;58.45
76124;BME280;65173;48.066;20.976;2023-02-26T18:23:24;100236.53;;;1.84;58.97
76124;BME280;65173;48.066;20.976;2023-02-26T18:26:30;100246.50;;;1.82;59.26
76124;BME280;65173;48.066;20.976;2023-02-26T18:29:33;100239.91;;;1.80;59.30
76124;BME280;65173;48.066;20.976;2023-02-26T18:32:37;100244.38;;;1.74;59.91
76124;BME280;65173;48.066;20.976;2023-02-26T18:35:40;100250.66;;;1.73;60.12
76124;BME280;65173;48.066;20.976;2023-02-26T18:38:49;100253.03;;;1.74;59.29
76124;BME280;65173;48.066;20.976;2023-02-26T18:41:52;100253.78;;;1.70;59.39
76124;BME280;65173;48.066;20.976;2023-02-26T18:44:55;100253.78;;;1.70;59.65
76124;BME280;65173;48.066;20.976;2023-02-26T18:47:59;100252.22;;;1.69;59.05